Data for 02/17/2017

Time Sea-Level Adjusted Pressure Absolute Pressure Temperature Relative Humidity Dew Point   
(mb) (inHg) (mb) (inHg) (C) (F) (%) (C) (F)
00:05 1006 29.71 835 24.66 3 37.5 78 -0.4 31.3
00:10 1006 29.71 836 24.69 2.8 37 79 -0.5 31.1
00:15 1006 29.71 836 24.69 3.1 37.5 75 -0.9 30.4
00:20 1006 29.71 835 24.66 3.2 37.8 77 -0.5 31.2
00:25 1006 29.71 835 24.66 3.3 37.9 77 -0.3 31.4
00:30 1006 29.71 835 24.66 3.2 37.8 72 -1.4 29.5
00:35 1006 29.71 835 24.66 3.8 38.9 67 -1.8 28.7
00:40 1006 29.71 835 24.66 4.1 39.4 61 -2.6 27.3
00:45 1006 29.71 835 24.66 4.3 39.8 54 -4.2 24.5
00:50 1006 29.71 835 24.66 4.6 40.3 48 -5.6 22
00:55 1006 29.71 835 24.66 4.9 40.8 46 -5.8 21.5
01:00 1006 29.71 836 24.69 5.2 41.4 40 -7.2 19
01:05 1007 29.74 836 24.69 5.4 41.7 41 -6.8 19.8
01:10 1007 29.74 836 24.69 5.2 41.4 41 -6.8 19.8
01:15 1007 29.74 836 24.69 5.1 41.2 41 -7 19.5
01:20 1007 29.74 836 24.69 5 41.1 43 -6.6 20.1
01:25 1007 29.74 836 24.69 5 40.9 42 -6.8 19.8
01:30 1007 29.74 836 24.69 4.9 40.8 43 -6.7 20
01:35 1007 29.74 836 24.69 4.7 40.4 44 -6.5 20.4
01:40 1007 29.74 836 24.69 4.6 40.2 45 -6.5 20.3
01:45 1007 29.74 836 24.69 4.6 40.3 43 -6.8 19.8
01:50 1007 29.74 836 24.69 4.6 40.3 44 -6.7 19.9
01:55 1007 29.74 836 24.69 4.6 40.3 44 -6.7 19.9
02:00 1007 29.74 836 24.69 4.5 40 44 -6.6 20.1
02:05 1007 29.74 836 24.69 4.5 40 43 -7.1 19.2
02:10 1007 29.74 836 24.69 4.5 40.1 43 -7 19.3
02:15 1007 29.74 836 24.69 4.5 40.1 42 -7.3 18.9
02:20 1007 29.74 836 24.69 4.6 40.3 41 -7.5 18.4
02:25 1007 29.74 836 24.69 4.7 40.4 41 -7.5 18.6
02:30 1007 29.74 836 24.69 4.6 40.2 42 -7.4 18.7
02:35 1007 29.74 836 24.69 4.5 40 41 -7.5 18.5
02:40 1007 29.74 837 24.72 4.5 40 41 -7.7 18.2
02:45 1007 29.74 837 24.72 4.4 39.9 41 -7.9 17.8
02:50 1007 29.74 837 24.72 4.5 40.1 38 -8.5 16.6
02:55 1008 29.77 837 24.72 4.6 40.3 39 -8.2 17.3
03:00 1008 29.77 837 24.72 4.6 40.2 38 -8.4 16.8
03:05 1008 29.77 837 24.72 4.5 40.2 39 -8.2 17.3
03:10 1008 29.77 837 24.72 4.4 40 39 -8.3 17.1
03:15 1008 29.77 837 24.72 4.3 39.8 40 -8.2 17.3
03:20 1008 29.77 837 24.72 4.4 39.9 39 -8.5 16.7
03:25 1008 29.77 837 24.72 4.5 40.1 39 -8.5 16.8
03:30 1008 29.77 837 24.72 4.6 40.2 38 -8.5 16.7
03:35 1008 29.77 837 24.72 4.5 40.1 40 -7.9 17.7
03:40 1008 29.77 837 24.72 4.3 39.7 42 -7.6 18.3
03:45 1008 29.77 837 24.72 3.9 39 43 -7.5 18.5
03:50 1008 29.77 837 24.72 3.7 38.6 44 -7.6 18.3
03:55 1008 29.77 837 24.72 3.8 38.8 41 -8.2 17.3
04:00 1008 29.77 837 24.72 4.1 39.3 40 -8.3 17.1
04:05 1008 29.77 837 24.72 4.2 39.5 40 -8.4 16.9
04:10 1008 29.77 837 24.72 4.4 39.8 39 -8.5 16.6
04:15 1008 29.77 837 24.72 4.3 39.8 40 -8.2 17.2
04:20 1008 29.77 837 24.72 4.2 39.6 40 -8.4 16.9
04:25 1008 29.77 837 24.72 4.2 39.5 40 -8.3 17.1
04:30 1008 29.77 837 24.72 4.1 39.4 40 -8.3 17
04:35 1008 29.77 837 24.72 4 39.2 41 -8 17.7
04:40 1008 29.77 837 24.72 3.9 39 42 -7.8 17.9
04:45 1008 29.77 837 24.72 3.9 38.9 41 -8.3 17
04:50 1008 29.77 837 24.72 4 39.2 41 -8 17.6
04:55 1008 29.77 837 24.72 3.9 39 41 -8.1 17.4
05:00 1008 29.77 837 24.72 3.9 39 42 -8 17.5
05:05 1008 29.77 837 24.72 3.8 38.9 42 -8 17.6
05:10 1008 29.77 837 24.72 3.7 38.7 42 -8.1 17.4
05:15 1008 29.77 837 24.72 3.8 38.8 42 -8.1 17.3
05:20 1008 29.77 837 24.72 3.8 38.9 41 -8.3 17.1
05:25 1008 29.77 837 24.72 3.9 39 41 -8.3 17.1
05:30 1008 29.77 837 24.72 3.9 39 40 -8.4 16.9
05:35 1008 29.77 837 24.72 3.9 39 42 -8 17.6
05:40 1008 29.77 837 24.72 3.7 38.7 43 -7.8 17.9
05:45 1008 29.77 837 24.72 3.5 38.3 44 -7.6 18.3
05:50 1008 29.77 837 24.72 3.3 37.9 45 -7.5 18.4
05:55 1008 29.77 838 24.75 3.1 37.6 46 -7.5 18.5
06:00 1008 29.77 838 24.75 3.1 37.5 45 -7.8 18
06:05 1008 29.77 838 24.75 3.1 37.6 45 -7.7 18.1
06:10 1008 29.77 838 24.75 3.1 37.6 44 -7.9 17.8
06:15 1008 29.77 838 24.75 3.2 37.7 43 -8.3 17
06:20 1008 29.77 838 24.75 3.4 38.1 43 -8.2 17.3
06:25 1008 29.77 838 24.75 3.5 38.3 41 -8.6 16.6
06:30 1008 29.77 838 24.75 3.6 38.5 41 -8.4 16.8
06:35 1008 29.77 838 24.75 3.5 38.3 42 -8.4 16.9
06:40 1008 29.77 838 24.75 3.3 37.9 42 -8.4 16.9
06:45 1008 29.77 838 24.75 3.4 38.1 40 -8.9 16
06:50 1008 29.77 838 24.75 3.6 38.6 40 -8.7 16.3
06:55 1008 29.77 838 24.75 3.7 38.7 40 -8.8 16.2
07:00 1008 29.77 838 24.75 3.7 38.6 40 -8.8 16.2
07:05 1008 29.77 838 24.75 3.6 38.5 41 -8.5 16.7
07:10 1009 29.8 838 24.75 3.4 38.1 43 -8.2 17.3
07:15 1009 29.8 838 24.75 3.2 37.7 42 -8.4 16.9
07:20 1009 29.8 838 24.75 3.1 37.6 43 -8.4 16.9
07:25 1009 29.8 838 24.75 2.9 37.3 44 -8.1 17.4
07:30 1009 29.8 838 24.75 2.8 37 44 -8.3 17.1
07:35 1009 29.8 838 24.75 2.7 36.9 44 -8.3 17.1
07:40 1009 29.8 838 24.75 2.9 37.1 43 -8.6 16.5
07:45 1009 29.8 838 24.75 3 37.4 43 -8.3 17
07:50 1009 29.8 838 24.75 2.8 37 44 -8.4 16.9
07:55 1009 29.8 838 24.75 2.8 37 42 -8.8 16.2
08:00 1009 29.8 838 24.75 3 37.4 42 -8.8 16.2
08:05 1009 29.8 838 24.75 3 37.4 42 -8.7 16.3
08:10 1009 29.8 838 24.75 3 37.4 41 -8.9 16
08:15 1009 29.8 838 24.75 3.2 37.7 41 -8.8 16.2
08:20 1009 29.8 838 24.75 3.2 37.7 42 -8.5 16.7
08:25 1009 29.8 838 24.75 2.7 36.8 43 -8.7 16.3
08:30 1009 29.8 838 24.75 2.6 36.7 43 -8.7 16.3
08:35 1009 29.8 838 24.75 2.7 36.9 42 -8.9 16
08:40 1009 29.8 838 24.75 2.8 37 44 -8.3 17
08:45 1009 29.8 838 24.75 2.4 36.4 44 -8.6 16.5
08:50 1009 29.8 838 24.75 2.4 36.3 44 -8.6 16.5
08:55 1009 29.8 838 24.75 2.6 36.7 43 -8.8 16.2
09:00 1009 29.8 838 24.75 3 37.3 40 -9.5 14.9
09:05 1009 29.8 839 24.78 3.5 38.4 37 -9.7 14.5
09:10 1009 29.8 839 24.78 3.8 38.8 37 -9.6 14.8
09:15 1010 29.83 839 24.78 3.9 38.9 37 -9.6 14.7
09:20 1010 29.83 839 24.78 4 39.2 37 -9.3 15.3
09:25 1010 29.83 839 24.78 4.2 39.5 37 -9.3 15.2
09:30 1010 29.83 839 24.78 4.4 39.9 37 -9 15.8
09:35 1010 29.83 839 24.78 4.3 39.7 38 -8.9 16
09:40 1010 29.83 839 24.78 4.3 39.7 37 -9.2 15.5
09:45 1010 29.83 839 24.78 4.8 40.6 37 -8.6 16.5
09:50 1010 29.83 839 24.78 5.2 41.3 37 -8.4 16.8
09:55 1010 29.83 839 24.78 5.1 41.2 38 -8.2 17.2
10:00 1010 29.83 839 24.78 4.6 40.2 39 -8.2 17.2
10:05 1010 29.83 839 24.78 4.6 40.3 38 -8.5 16.8
10:10 1010 29.83 839 24.78 5.5 41.8 36 -8.5 16.8
10:15 1010 29.83 839 24.78 5.9 42.7 36 -8.1 17.4
10:20 1010 29.83 839 24.78 5.9 42.6 37 -7.6 18.3
10:25 1010 29.83 839 24.78 5.8 42.4 37 -7.8 18
10:30 1010 29.83 839 24.78 5.7 42.3 36 -8.1 17.5
10:35 1010 29.83 840 24.81 5.9 42.6 35 -8.3 17
10:40 1010 29.83 840 24.81 6 42.7 35 -8.5 16.8
10:45 1010 29.83 839 24.78 6 42.9 36 -8.1 17.5
10:50 1010 29.83 839 24.78 6.1 43 36 -7.8 18
10:55 1010 29.83 839 24.78 5.9 42.6 35 -8.4 17
11:00 1010 29.83 840 24.81 6 42.8 37 -7.5 18.5
11:05 1010 29.83 840 24.81 6.2 43.1 36 -7.8 17.9
11:10 1010 29.83 840 24.81 6.5 43.7 33 -8.7 16.3
11:15 1010 29.83 840 24.81 6.8 44.2 32 -8.8 16.1
11:20 1011 29.85 840 24.81 6.9 44.5 32 -8.6 16.6
11:25 1011 29.85 840 24.81 7.2 45 33 -7.9 17.7
11:30 1011 29.85 840 24.81 7.1 44.7 32 -8.7 16.3
11:35 1011 29.85 840 24.81 7.6 45.6 31 -8.3 17
11:40 1011 29.85 840 24.81 7.5 45.5 31 -8.5 16.7
11:45 1010 29.83 840 24.81 7.5 45.5 32 -8.3 17.1
11:50 1010 29.83 840 24.81 7.7 45.8 31 -8.3 17
11:55 1010 29.83 839 24.78 7.7 45.8 32 -8 17.5
12:00 1010 29.83 839 24.78 8 46.3 32 -7.9 17.7
12:05 1010 29.83 839 24.78 8.2 46.8 30 -8.4 16.9
12:10 1010 29.83 839 24.78 8.6 47.5 31 -7.6 18.2
12:15 1010 29.83 839 24.78 8.7 47.7 30 -7.9 17.7
12:20 1010 29.83 839 24.78 8.6 47.5 31 -7.7 18.1
12:25 1010 29.83 839 24.78 8.6 47.5 29 -8.4 17
12:30 1010 29.83 839 24.78 8.7 47.7 28 -9 15.8
12:35 1010 29.83 839 24.78 9.2 48.6 26 -9.1 15.6
12:40 1010 29.83 839 24.78 9.7 49.4 27 -8.5 16.8
12:45 1010 29.83 839 24.78 9.7 49.4 27 -8.4 16.9
12:50 1010 29.83 839 24.78 9.5 49.2 29 -7.7 18.2
12:55 1010 29.83 839 24.78 9.6 49.3 26 -8.8 16.2
13:00 1009 29.8 839 24.78 9.4 48.8 27 -8.9 16
13:05 1009 29.8 839 24.78 9.4 49 26 -9.2 15.4
13:10 1009 29.8 839 24.78 9.5 49 27 -8.9 16.1
13:15 1009 29.8 839 24.78 9.4 48.8 27 -8.5 16.6
13:20 1009 29.8 839 24.78 9.8 49.6 26 -9 15.8
13:25 1009 29.8 838 24.75 9.9 49.7 25 -9.1 15.6
13:30 1009 29.8 838 24.75 9.5 49.1 26 -9.1 15.6
13:35 1009 29.8 838 24.75 9.3 48.8 27 -8.9 16
13:40 1009 29.8 838 24.75 9.5 49 25 -9.5 14.9
13:45 1009 29.8 838 24.75 9.5 49 27 -8.4 16.9
13:50 1009 29.8 838 24.75 8.1 46.6 31 -8.2 17.3
13:55 1009 29.8 838 24.75 7 44.5 32 -8.4 16.8
14:00 1009 29.8 838 24.75 7.1 44.8 31 -8.9 15.9
14:05 1009 29.8 838 24.75 7.4 45.3 30 -9 15.8
14:10 1008 29.77 838 24.75 7.4 45.3 29 -9.4 15.1
14:15 1008 29.77 838 24.75 7.3 45.2 31 -8.9 16
14:20 1008 29.77 837 24.72 8 46.4 28 -9.6 14.7
14:25 1008 29.77 837 24.72 9.4 48.8 26 -9.2 15.4
14:30 1008 29.77 837 24.72 10 50.1 24 -9.7 14.6
14:35 1008 29.77 837 24.72 9.4 49 26 -9 15.8
14:40 1008 29.77 837 24.72 8.9 48 27 -9.2 15.5
14:45 1008 29.77 837 24.72 7.7 45.9 28 -9.5 15
14:50 1008 29.77 837 24.72 7.6 45.7 27 -10.2 13.6
14:55 1008 29.77 837 24.72 8 46.3 28 -9.6 14.7
15:00 1008 29.77 837 24.72 8.8 47.8 25 -10.2 13.7
15:05 1008 29.77 837 24.72 9.8 49.7 25 -9.5 14.9
15:10 1008 29.77 837 24.72 9.6 49.2 25 -9.3 15.3
15:15 1008 29.77 837 24.72 8.7 47.7 26 -9.6 14.7
15:20 1008 29.77 837 24.72 8.7 47.7 26 -9.7 14.5
15:25 1008 29.77 837 24.72 9.7 49.4 24 -9.8 14.3
15:30 1008 29.77 837 24.72 9.3 48.7 26 -9.2 15.4
15:35 1008 29.77 837 24.72 8.8 47.9 27 -9.1 15.5
15:40 1008 29.77 837 24.72 8.6 47.5 26 -10.1 13.8
15:45 1008 29.77 837 24.72 8.1 46.6 26 -10.3 13.5
15:50 1007 29.74 837 24.72 7.9 46.2 27 -10.1 13.8
15:55 1007 29.74 837 24.72 7.7 45.8 28 -9.8 14.4
16:00 1007 29.74 837 24.72 8.1 46.5 27 -10 13.9
16:05 1007 29.74 837 24.72 9.1 48.3 25 -9.8 14.3
16:10 1007 29.74 837 24.72 7.9 46.2 27 -9.8 14.3
16:15 1007 29.74 836 24.69 7.2 45 28 -10.3 13.5
16:20 1007 29.74 836 24.69 7.8 46.1 26 -10.5 13.1
16:25 1007 29.74 836 24.69 7.7 45.9 28 -9.9 14.2
16:30 1007 29.74 836 24.69 7.9 46.3 28 -9.4 15
16:35 1007 29.74 836 24.69 7.9 46.3 26 -10.4 13.2
16:40 1007 29.74 836 24.69 8.4 47.2 26 -10 14.1
16:45 1007 29.74 836 24.69 8.8 47.8 26 -9.6 14.7
16:50 1007 29.74 836 24.69 9 48.3 25 -10.1 13.8
16:55 1007 29.74 836 24.69 8.5 47.3 26 -10 14
17:00 1007 29.74 836 24.69 7.6 45.6 27 -10.5 13.1
17:05 1007 29.74 836 24.69 7.8 46.1 26 -10.5 13.1
17:10 1007 29.74 836 24.69 8.3 47 25 -10.4 13.2
17:15 1007 29.74 836 24.69 8.3 47 26 -10 14
17:20 1007 29.74 836 24.69 8.4 47.2 26 -10.1 13.8
17:25 1007 29.74 836 24.69 8.8 47.9 24 -10.7 12.7
17:30 1007 29.74 836 24.69 8.9 48 25 -10.3 13.5
17:35 1007 29.74 836 24.69 8.9 48.1 24 -10.4 13.3
17:40 1007 29.74 836 24.69 8.9 48 25 -10.1 13.8
17:45 1007 29.74 836 24.69 9 48.2 23 -10.9 12.4
17:50 1007 29.74 836 24.69 9.3 48.7 23 -10.6 13
17:55 1007 29.74 836 24.69 8.8 47.8 25 -10.4 13.2
18:00 1006 29.71 836 24.69 8.5 47.3 25 -10.6 12.9
18:05 1006 29.71 836 24.69 8.8 47.9 24 -10.5 13.1
18:10 1006 29.71 836 24.69 8.5 47.3 25 -10.5 13
18:15 1006 29.71 836 24.69 8.1 46.7 25 -10.6 12.9
18:20 1006 29.71 836 24.69 7.7 45.9 27 -10.3 13.5
18:25 1006 29.71 836 24.69 7.5 45.5 27 -10.3 13.4
18:30 1006 29.71 836 24.69 7.3 45.1 27 -10.4 13.3
18:35 1006 29.71 836 24.69 7.1 44.7 28 -10.5 13.2
18:40 1006 29.71 835 24.66 7 44.6 28 -10.5 13.2
18:45 1006 29.71 835 24.66 6.9 44.4 28 -10.2 13.6
18:50 1006 29.71 835 24.66 6.7 44 29 -10.1 13.8
18:55 1006 29.71 835 24.66 6.4 43.5 31 -9.6 14.7
19:00 1006 29.71 835 24.66 5.8 42.5 32 -9.5 14.9
19:05 1006 29.71 835 24.66 5.6 42.2 32 -9.8 14.4
19:10 1006 29.71 835 24.66 5.8 42.4 32 -9.6 14.7
19:15 1006 29.71 835 24.66 5.9 42.5 33 -9.2 15.4
19:20 1006 29.71 835 24.66 5.7 42.2 38 -7.4 18.7
19:25 1006 29.71 835 24.66 4.8 40.6 44 -6.6 20.1
19:30 1006 29.71 835 24.66 3.8 38.9 43 -7.5 18.5
19:35 1006 29.71 835 24.66 3.9 39 45 -7 19.3
19:40 1006 29.71 835 24.66 3.8 38.8 44 -7.5 18.5
19:45 1006 29.71 835 24.66 3.6 38.5 44 -7.4 18.6
19:50 1006 29.71 835 24.66 3.4 38 45 -7.5 18.5
19:55 1006 29.71 835 24.66 3.1 37.6 46 -7.5 18.5
20:00 1006 29.71 835 24.66 3 37.3 46 -7.5 18.4
20:05 1006 29.71 835 24.66 2.8 37 48 -7.2 19
20:10 1006 29.71 835 24.66 2.6 36.6 46 -7.8 18
20:15 1006 29.71 835 24.66 2.8 37 48 -7.1 19.2
20:20 1006 29.71 835 24.66 2.6 36.8 48 -7.4 18.7
20:25 1006 29.71 835 24.66 2.9 37.2 46 -7.6 18.3
20:30 1006 29.71 835 24.66 3 37.4 48 -7 19.5
20:35 1006 29.71 835 24.66 2.8 37 48 -7.2 19.1
20:40 1006 29.71 835 24.66 2.7 36.9 47 -7.6 18.4
20:45 1006 29.71 835 24.66 3 37.4 45 -7.9 17.9
20:50 1006 29.71 835 24.66 3.1 37.6 46 -7.4 18.7
20:55 1006 29.71 835 24.66 2.8 37 47 -7.5 18.5
21:00 1006 29.71 835 24.66 3 37.4 44 -8.2 17.2
21:05 1006 29.71 835 24.66 3.5 38.2 44 -7.8 17.9
21:10 1006 29.71 835 24.66 3.4 38.1 45 -7.4 18.6
21:15 1006 29.71 835 24.66 3.1 37.6 46 -7.4 18.7
21:20 1006 29.71 835 24.66 2.9 37.2 48 -7.2 19.1
21:25 1006 29.71 835 24.66 2.8 37 48 -7.2 19.1
21:30 1006 29.71 835 24.66 2.7 36.9 49 -7 19.4
21:35 1006 29.71 835 24.66 2.6 36.7 50 -6.9 19.5
21:40 1006 29.71 835 24.66 2.5 36.5 50 -6.8 19.7
21:45 1006 29.71 835 24.66 2.5 36.5 50 -6.9 19.6
21:50 1006 29.71 835 24.66 2.5 36.5 49 -7 19.3
21:55 1006 29.71 835 24.66 2.8 37.1 47 -7.4 18.8
22:00 1006 29.71 835 24.66 3.1 37.6 45 -7.6 18.3
22:05 1006 29.71 835 24.66 3.3 38 45 -7.4 18.7
22:10 1006 29.71 835 24.66 3.2 37.8 46 -7.4 18.6
22:15 1006 29.71 835 24.66 3.1 37.6 46 -7.4 18.7
22:20 1006 29.71 835 24.66 3.3 38 44 -7.9 17.8
22:25 1006 29.71 835 24.66 3.8 38.9 46 -6.8 19.8
22:30 1006 29.71 835 24.66 3.6 38.6 46 -6.8 19.7
22:35 1006 29.71 835 24.66 3.4 38.1 43 -7.9 17.8
22:40 1006 29.71 835 24.66 3.7 38.7 44 -7.5 18.6
22:45 1006 29.71 835 24.66 3.6 38.4 44 -7.5 18.5
22:50 1006 29.71 835 24.66 3.7 38.7 46 -6.9 19.7
22:55 1006 29.71 835 24.66 3.8 38.8 41 -8.2 17.2
23:00 1005 29.68 835 24.66 4.3 39.8 41 -7.7 18.2
23:05 1005 29.68 835 24.66 4.3 39.7 42 -7.6 18.3
23:10 1005 29.68 835 24.66 4 39.3 44 -7.3 18.9
23:15 1005 29.68 835 24.66 4 39.1 43 -7.5 18.4
23:20 1005 29.68 834 24.63 4.2 39.6 42 -7.5 18.5
23:25 1005 29.68 834 24.63 4.1 39.4 43 -7.5 18.6
23:30 1005 29.68 834 24.63 4.1 39.3 44 -7.1 19.2
23:35 1005 29.68 834 24.63 3.9 39.1 44 -7.1 19.2
23:40 1005 29.68 834 24.63 3.9 39 45 -7.1 19.3
23:45 1005 29.68 834 24.63 3.8 38.9 44 -7.4 18.8
23:50 1005 29.68 834 24.63 3.9 39 45 -7 19.4
23:55 1005 29.68 834 24.63 3.8 38.8 45 -7.1 19.1
24:00 1005 29.68 834 24.63 3.8 38.8 45 -7.1 19.2